Time;durP1;ratioP1;P1;durP2;ratioP2;P2;SDS_P1;SDS_P2;PMS_P1;PMS_P2;Temp;Humidity;BMP_temperature;BMP_pressure;BME280_temperature;BME280_humidity;BME280_pressure;Samples;Min_cycle;Max_cycle;Signal;HPM_P1;HPM_P2
2021/12/03 00:01:12;;;;;;;2.80;1.90;;;;;7.60;100813.00;;;;5089074;28;20206;-78
2021/12/03 00:03:40;;;;;;;2.10;1.55;;;;;7.60;100811.00;;;;5089192;28;20217;-78
2021/12/03 00:06:08;;;;;;;2.55;1.88;;;;;7.60;100812.00;;;;5091408;28;20198;-79
2021/12/03 00:08:35;;;;;;;3.17;1.80;;;;;7.60;100821.00;;;;5088333;28;20198;-78
2021/12/03 00:11:04;;;;;;;2.13;1.20;;;;;7.60;100823.00;;;;5088453;28;20209;-78
2021/12/03 00:13:33;;;;;;;2.80;1.35;;;;;7.60;100810.00;;;;5088907;28;20201;-78
2021/12/03 00:16:03;;;;;;;3.40;1.58;;;;;7.60;100817.00;;;;5088500;28;20198;-78
2021/12/03 00:18:30;;;;;;;2.20;1.50;;;;;7.60;100814.00;;;;5094823;28;20221;-78
2021/12/03 00:21:01;;;;;;;1.73;1.25;;;;;7.60;100812.00;;;;5103322;28;20193;-78
2021/12/03 00:23:29;;;;;;;1.73;1.20;;;;;7.60;100821.00;;;;5096969;28;20202;-78
2021/12/03 00:25:59;;;;;;;5.57;1.27;;;;;7.60;100823.00;;;;5088924;28;20185;-78
2021/12/03 00:28:26;;;;;;;2.45;1.00;;;;;7.60;100822.00;;;;5088609;28;20691;-78
2021/12/03 00:30:54;;;;;;;2.08;1.38;;;;;7.60;100817.00;;;;5089270;28;20205;-78
2021/12/03 00:33:22;;;;;;;1.55;1.13;;;;;7.60;100821.00;;;;5088235;28;20198;-78
2021/12/03 00:35:51;;;;;;;1.60;1.17;;;;;7.60;100824.00;;;;5096918;28;20246;-78
2021/12/03 00:38:19;;;;;;;1.55;1.25;;;;;7.60;100816.00;;;;5093033;28;20522;-78
2021/12/03 00:40:46;;;;;;;3.13;1.27;;;;;7.60;100815.00;;;;5100748;28;20195;-78
2021/12/03 00:43:14;;;;;;;2.63;1.42;;;;;7.60;100822.00;;;;5088581;28;20194;-78
2021/12/03 00:45:43;;;;;;;3.30;1.58;;;;;7.60;100814.00;;;;5088460;28;20285;-78
2021/12/03 00:48:11;;;;;;;1.63;1.27;;;;;7.60;100819.00;;;;5088268;28;20193;-78
2021/12/03 00:50:40;;;;;;;2.10;1.33;;;;;7.50;100825.00;;;;5087664;28;20209;-78
2021/12/03 00:53:07;;;;;;;2.92;1.90;;;;;7.60;100833.00;;;;5088179;28;20237;-78
2021/12/03 00:55:35;;;;;;;3.53;1.30;;;;;7.50;100833.00;;;;5089231;28;20197;-78
2021/12/03 00:58:02;;;;;;;2.85;1.35;;;;;7.50;100833.00;;;;5089091;28;20201;-78
2021/12/03 01:00:33;;;;;;;1.50;1.33;;;;;7.50;100831.00;;;;5095761;28;20197;-78
2021/12/03 01:03:03;;;;;;;3.38;1.55;;;;;7.50;100829.00;;;;5087970;28;20206;-78
2021/12/03 01:05:30;;;;;;;2.80;1.33;;;;;7.50;100839.00;;;;5087241;28;20244;-78
2021/12/03 01:07:59;;;;;;;1.45;0.98;;;;;7.50;100839.00;;;;5087752;28;20194;-78
2021/12/03 01:10:27;;;;;;;2.05;1.35;;;;;7.50;100838.00;;;;5087641;28;20201;-78
2021/12/03 01:12:55;;;;;;;1.27;1.10;;;;;7.50;100834.00;;;;5087804;28;20194;-77
2021/12/03 01:15:25;;;;;;;2.53;1.30;;;;;7.50;100839.00;;;;5087187;28;20233;-78
2021/12/03 01:17:52;;;;;;;2.35;1.33;;;;;7.50;100835.00;;;;5091090;28;20201;-78
2021/12/03 01:20:21;;;;;;;1.52;1.23;;;;;7.50;100827.00;;;;5087855;28;20194;-78
2021/12/03 01:22:51;;;;;;;2.00;1.25;;;;;7.50;100832.00;;;;5099571;28;20235;-78
2021/12/03 01:25:21;;;;;;;2.30;1.52;;;;;7.50;100824.00;;;;5102148;28;20261;-78
2021/12/03 01:27:49;;;;;;;2.28;1.25;;;;;7.50;100829.00;;;;5087833;28;20194;-78
2021/12/03 01:30:20;;;;;;;2.35;1.60;;;;;7.50;100816.00;;;;5087630;28;20201;-78
2021/12/03 01:32:48;;;;;;;2.95;1.45;;;;;7.50;100811.00;;;;5101321;28;20244;-78
2021/12/03 01:35:15;;;;;;;1.77;1.20;;;;;7.50;100814.00;;;;5095589;28;20187;-78
2021/12/03 01:37:43;;;;;;;1.55;1.42;;;;;7.50;100814.00;;;;5088133;28;20699;-78
2021/12/03 01:40:14;;;;;;;1.83;1.20;;;;;7.40;100807.00;;;;5086943;28;20226;-78
2021/12/03 01:42:44;;;;;;;3.33;1.80;;;;;7.40;100806.00;;;;5087222;28;20656;-78
2021/12/03 01:45:15;;;;;;;3.92;1.42;;;;;7.40;100813.00;;;;5087237;28;20734;-78
2021/12/03 01:47:43;;;;;;;4.15;2.05;;;;;7.50;100809.00;;;;5090270;28;20212;-78
2021/12/03 01:50:11;;;;;;;1.83;1.20;;;;;7.50;100799.00;;;;5086861;28;20678;-78
2021/12/03 01:52:39;;;;;;;1.80;1.40;;;;;7.50;100804.00;;;;5087053;28;20218;-78
2021/12/03 01:55:09;;;;;;;2.72;1.92;;;;;7.50;100798.00;;;;5100808;28;20201;-77
2021/12/03 01:57:36;;;;;;;6.00;1.48;;;;;7.50;100811.00;;;;5086851;28;20201;-78
2021/12/03 02:00:08;;;;;;;1.35;1.15;;;;;7.50;100802.00;;;;5087744;28;20225;-78
2021/12/03 02:02:36;;;;;;;4.32;1.52;;;;;7.50;100816.00;;;;5090155;28;20201;-78
2021/12/03 02:05:04;;;;;;;2.55;1.70;;;;;7.50;100823.00;;;;5093723;28;20255;-78
2021/12/03 02:07:32;;;;;;;2.75;1.55;;;;;7.50;100832.00;;;;5102752;28;20194;-78
2021/12/03 02:09:59;;;;;;;1.60;1.35;;;;;7.50;100830.00;;;;5097885;28;20198;-78
2021/12/03 02:12:26;;;;;;;3.80;1.33;;;;;7.60;100832.00;;;;5096537;28;20189;-78
2021/12/03 02:14:53;;;;;;;3.28;1.83;;;;;7.60;100825.00;;;;5096638;28;20958;-78
2021/12/03 02:17:22;;;;;;;1.92;1.60;;;;;7.50;100817.00;;;;5090928;28;20640;-78
2021/12/03 02:19:49;;;;;;;2.92;1.65;;;;;7.60;100817.00;;;;5103875;28;20234;-78
2021/12/03 02:22:19;;;;;;;2.08;1.65;;;;;7.60;100814.00;;;;5103092;28;20198;-78
2021/12/03 02:24:46;;;;;;;3.80;1.95;;;;;7.60;100815.00;;;;5099101;28;20186;-78
2021/12/03 02:27:13;;;;;;;2.92;1.90;;;;;7.60;100799.00;;;;5090149;28;20205;-78
2021/12/03 02:29:40;;;;;;;4.80;1.95;;;;;7.60;100798.00;;;;5100131;28;20210;-78
2021/12/03 02:32:08;;;;;;;4.63;1.88;;;;;7.60;100797.00;;;;5106678;28;20193;-78
2021/12/03 02:34:36;;;;;;;1.65;1.38;;;;;7.60;100794.00;;;;5102290;28;20189;-78
2021/12/03 02:37:04;;;;;;;3.97;2.17;;;;;7.70;100797.00;;;;5097063;28;20298;-78
2021/12/03 02:39:33;;;;;;;2.10;1.33;;;;;7.60;100790.00;;;;5093894;28;20218;-78
2021/12/03 02:42:00;;;;;;;2.05;1.70;;;;;7.70;100799.00;;;;5090512;28;20379;-78
2021/12/03 02:44:27;;;;;;;2.05;1.60;;;;;7.70;100793.00;;;;5090259;28;20551;-78
2021/12/03 02:46:54;;;;;;;2.72;1.83;;;;;7.70;100785.00;;;;5090318;28;20202;-78
2021/12/03 02:49:22;;;;;;;4.32;2.20;;;;;7.70;100785.00;;;;5090141;28;21060;-78
2021/12/03 02:51:49;;;;;;;2.45;1.58;;;;;7.70;100790.00;;;;5093067;28;20194;-78
2021/12/03 02:54:17;;;;;;;2.53;1.85;;;;;7.70;100790.00;;;;5093071;28;20198;-78
2021/12/03 02:56:47;;;;;;;2.20;1.90;;;;;7.70;100794.00;;;;5094579;28;20206;-77
2021/12/03 02:59:14;;;;;;;2.90;1.85;;;;;7.70;100792.00;;;;5090089;28;20218;-77
2021/12/03 03:01:41;;;;;;;2.28;1.50;;;;;7.80;100787.00;;;;5089488;28;20198;-78
2021/12/03 03:04:08;;;;;;;2.03;1.70;;;;;7.80;100783.00;;;;5097154;28;20200;-78
2021/12/03 03:06:36;;;;;;;2.70;2.00;;;;;7.80;100782.00;;;;5109934;28;20205;-78
2021/12/03 03:09:08;;;;;;;2.67;2.00;;;;;7.80;100783.00;;;;5101202;28;20194;-78
2021/12/03 03:11:35;;;;;;;2.72;1.92;;;;;7.80;100785.00;;;;5089317;28;20190;-78
2021/12/03 03:14:04;;;;;;;3.78;2.08;;;;;7.80;100794.00;;;;5090415;28;20547;-78
2021/12/03 03:16:32;;;;;;;2.47;2.13;;;;;7.80;100785.00;;;;5097503;28;20690;-78
2021/12/03 03:19:00;;;;;;;4.00;1.75;;;;;7.80;100785.00;;;;5092083;28;20230;-77
2021/12/03 03:21:28;;;;;;;2.72;1.70;;;;;7.80;100788.00;;;;5089603;28;20214;-78
2021/12/03 03:23:56;;;;;;;2.28;1.88;;;;;7.80;100789.00;;;;5090224;28;20202;-78
2021/12/03 03:26:23;;;;;;;3.05;2.28;;;;;7.80;100787.00;;;;5088878;28;20227;-78
2021/12/03 03:28:51;;;;;;;3.65;1.65;;;;;7.80;100782.00;;;;5089514;28;20202;-78
2021/12/03 03:31:19;;;;;;;2.55;2.13;;;;;7.80;100791.00;;;;5100535;28;20292;-78
2021/12/03 03:33:46;;;;;;;2.08;1.85;;;;;7.80;100787.00;;;;5097203;28;20206;-78
2021/12/03 03:36:14;;;;;;;2.20;1.85;;;;;7.80;100785.00;;;;5089742;28;20225;-78
2021/12/03 03:38:41;;;;;;;4.43;2.00;;;;;7.80;100775.00;;;;5105676;28;20655;-78
2021/12/03 03:41:08;;;;;;;3.20;1.83;;;;;7.80;100769.00;;;;5092592;28;20212;-78
2021/12/03 03:43:36;;;;;;;3.25;2.08;;;;;7.80;100765.00;;;;5092526;28;20194;-77
2021/12/03 03:46:03;;;;;;;2.42;1.88;;;;;7.80;100766.00;;;;5090093;28;20208;-78
2021/12/03 03:48:32;;;;;;;4.25;2.38;;;;;7.80;100762.00;;;;5105402;28;20816;-78
2021/12/03 03:50:59;;;;;;;6.72;2.60;;;;;7.80;100752.00;;;;5091216;28;20373;-78
2021/12/03 03:53:27;;;;;;;3.50;2.50;;;;;7.80;100749.00;;;;5091180;28;20230;-78
2021/12/03 03:55:54;;;;;;;3.70;2.83;;;;;7.90;100757.00;;;;5095575;28;20299;-79
2021/12/03 03:58:21;;;;;;;4.40;3.22;;;;;7.90;100744.00;;;;5087978;28;20217;-78
2021/12/03 04:00:49;;;;;;;4.72;3.15;;;;;7.90;100735.00;;;;5100216;28;20228;-78
2021/12/03 04:03:16;;;;;;;5.30;3.33;;;;;7.90;100734.00;;;;5088204;28;20190;-78
2021/12/03 04:05:45;;;;;;;4.22;3.03;;;;;7.90;100739.00;;;;5089480;28;20199;-78
2021/12/03 04:08:13;;;;;;;4.53;3.38;;;;;8.00;100746.00;;;;5088194;28;20205;-78
2021/12/03 04:10:40;;;;;;;6.25;3.70;;;;;8.00;100751.00;;;;5089227;28;20563;-78
2021/12/03 04:13:08;;;;;;;4.63;3.55;;;;;8.00;100745.00;;;;5096791;28;20193;-78
2021/12/03 04:15:37;;;;;;;6.43;3.97;;;;;8.00;100746.00;;;;5088444;28;20194;-78
2021/12/03 04:18:04;;;;;;;4.95;3.60;;;;;8.00;100745.00;;;;5091550;27;20189;-78
2021/12/03 04:20:32;;;;;;;7.13;4.03;;;;;8.10;100747.00;;;;5101368;28;20222;-78
2021/12/03 04:23:00;;;;;;;5.25;3.42;;;;;8.00;100751.00;;;;5088787;28;20224;-78
2021/12/03 04:25:28;;;;;;;4.97;3.80;;;;;8.10;100759.00;;;;5087383;28;20683;-79
2021/12/03 04:27:55;;;;;;;6.10;4.00;;;;;8.10;100752.00;;;;5102304;28;20200;-78
2021/12/03 04:30:26;;;;;;;4.63;4.10;;;;;8.10;100752.00;;;;5099309;28;20201;-78
2021/12/03 04:32:54;;;;;;;7.05;4.43;;;;;8.10;100753.00;;;;5093727;28;20203;-78
2021/12/03 04:35:22;;;;;;;11.15;4.78;;;;;8.20;100755.00;;;;5104559;28;20201;-79
2021/12/03 04:37:50;;;;;;;6.03;4.60;;;;;8.20;100740.00;;;;5090655;28;20205;-78
2021/12/03 04:40:21;;;;;;;6.32;4.22;;;;;8.10;100742.00;;;;5087838;28;20222;-78
2021/12/03 04:42:48;;;;;;;5.82;4.38;;;;;8.20;100737.00;;;;5100746;28;20201;-79
2021/12/03 04:45:18;;;;;;;7.88;4.75;;;;;8.20;100744.00;;;;5091637;28;20205;-78
2021/12/03 04:47:46;;;;;;;8.25;5.13;;;;;8.20;100742.00;;;;5097674;28;20633;-78
2021/12/03 04:50:15;;;;;;;6.05;4.10;;;;;8.20;100747.00;;;;5093250;28;20200;-79
2021/12/03 04:52:42;;;;;;;6.40;4.65;;;;;8.20;100745.00;;;;5094244;28;20230;-79
2021/12/03 04:55:11;;;;;;;6.60;4.88;;;;;8.20;100733.00;;;;5094812;28;20204;-79
2021/12/03 04:57:40;;;;;;;7.07;4.30;;;;;8.30;100731.00;;;;5096888;28;20194;-78
2021/12/03 05:00:11;;;;;;;6.60;4.95;;;;;8.30;100729.00;;;;5091759;28;20271;-79
2021/12/03 05:02:39;;;;;;;8.45;5.72;;;;;8.30;100724.00;;;;5099269;28;20194;-79
2021/12/03 05:05:07;;;;;;;5.88;4.22;;;;;8.40;100714.00;;;;5092469;28;20679;-79
2021/12/03 05:07:53;;;;;;;6.63;4.57;;;;;8.40;100716.00;;;;5092608;28;20213;-79
2021/12/03 05:10:21;;;;;;;7.28;4.68;;;;;8.40;100717.00;;;;5091034;28;20210;-79
2021/12/03 05:12:50;;;;;;;5.32;4.32;;;;;8.40;100717.00;;;;5103920;28;20608;-79
2021/12/03 05:15:18;;;;;;;5.43;4.35;;;;;8.50;100731.00;;;;5092194;28;20197;-80
2021/12/03 05:17:45;;;;;;;5.93;4.40;;;;;8.50;100720.00;;;;5088154;28;20225;-80
2021/12/03 05:20:14;;;;;;;6.15;4.43;;;;;8.50;100713.00;;;;5091076;28;20222;-80
2021/12/03 05:22:42;;;;;;;5.93;4.38;;;;;8.60;100714.00;;;;5088385;28;20194;-80
2021/12/03 05:25:10;;;;;;;7.18;5.22;;;;;8.60;100713.00;;;;5100853;28;20884;-80
2021/12/03 05:27:38;;;;;;;6.80;4.07;;;;;8.60;100706.00;;;;5092306;28;20194;-80
2021/12/03 05:30:09;;;;;;;7.65;4.72;;;;;8.60;100713.00;;;;5088102;28;20239;-80
2021/12/03 05:32:37;;;;;;;7.50;4.68;;;;;8.70;100704.00;;;;5088052;28;20202;-80
2021/12/03 05:35:05;;;;;;;5.57;4.30;;;;;8.70;100703.00;;;;5091425;28;20252;-80
2021/12/03 05:37:32;;;;;;;7.95;4.10;;;;;8.70;100705.00;;;;5110337;28;20217;-80
2021/12/03 05:40:00;;;;;;;5.18;3.40;;;;;8.70;100720.00;;;;5091756;28;20225;-80
2021/12/03 05:42:27;;;;;;;6.32;4.00;;;;;8.70;100720.00;;;;5098326;28;20675;-80
2021/12/03 05:44:54;;;;;;;6.53;3.95;;;;;8.80;100724.00;;;;5092449;28;20648;-81
2021/12/03 05:47:23;;;;;;;6.45;4.03;;;;;8.80;100727.00;;;;5091863;28;20725;-80
2021/12/03 05:49:50;;;;;;;6.00;4.00;;;;;8.80;100719.00;;;;5099602;28;20197;-81
2021/12/03 05:52:18;;;;;;;5.32;3.55;;;;;8.90;100724.00;;;;5094094;28;20222;-80
2021/12/03 05:54:46;;;;;;;5.07;4.00;;;;;8.90;100713.00;;;;5098936;28;20241;-80
2021/12/03 05:57:13;;;;;;;5.68;3.85;;;;;8.90;100713.00;;;;5096733;28;20209;-80
2021/12/03 05:59:40;;;;;;;5.70;4.30;;;;;9.00;100715.00;;;;5107242;28;20225;-80
2021/12/03 06:02:07;;;;;;;6.97;3.85;;;;;9.00;100715.00;;;;5096457;28;20194;-80
2021/12/03 06:04:36;;;;;;;8.27;4.10;;;;;9.00;100711.00;;;;5107009;28;20201;-80
2021/12/03 06:07:04;;;;;;;5.00;3.78;;;;;9.00;100694.00;;;;5108629;28;20202;-81
2021/12/03 06:09:32;;;;;;;7.10;3.90;;;;;9.10;100707.00;;;;5091943;28;20194;-81
2021/12/03 06:12:01;;;;;;;7.25;3.53;;;;;9.10;100705.00;;;;5100050;28;20627;-81
2021/12/03 06:14:28;;;;;;;6.10;3.25;;;;;9.10;100710.00;;;;5098025;28;20205;-81
2021/12/03 06:16:56;;;;;;;5.32;3.78;;;;;9.10;100704.00;;;;5091635;28;20190;-80
2021/12/03 06:19:24;;;;;;;6.07;3.80;;;;;9.10;100713.00;;;;5092018;28;20201;-80
2021/12/03 06:21:53;;;;;;;4.93;3.45;;;;;9.10;100711.00;;;;5096245;28;20222;-85
2021/12/03 06:24:20;;;;;;;6.05;3.95;;;;;9.10;100709.00;;;;5107229;28;20209;-80
2021/12/03 06:26:47;;;;;;;8.98;4.72;;;;;9.20;100711.00;;;;5094902;28;20312;-80
2021/12/03 06:29:15;;;;;;;7.10;3.63;;;;;9.20;100703.00;;;;5098100;28;20205;-80
2021/12/03 06:31:42;;;;;;;6.50;3.08;;;;;9.20;100705.00;;;;5093199;28;20243;-80
2021/12/03 06:34:09;;;;;;;6.43;3.40;;;;;9.20;100697.00;;;;5092963;28;20194;-81
2021/12/03 06:36:36;;;;;;;8.13;4.32;;;;;9.20;100698.00;;;;5101655;27;20221;-81
2021/12/03 06:39:05;;;;;;;6.43;3.60;;;;;9.20;100697.00;;;;5100700;27;20206;-80
2021/12/03 06:41:33;;;;;;;11.60;4.05;;;;;9.20;100708.00;;;;5097924;27;20221;-81
2021/12/03 06:44:00;;;;;;;5.90;3.50;;;;;9.20;100692.00;;;;5100019;28;20190;-81
2021/12/03 06:46:30;;;;;;;10.25;4.47;;;;;9.20;100690.00;;;;5091274;28;20194;-81
2021/12/03 06:48:57;;;;;;;9.48;4.60;;;;;9.20;100700.00;;;;5111468;28;20189;-80
2021/12/03 06:51:25;;;;;;;6.88;4.18;;;;;9.20;100697.00;;;;5106430;28;20202;-81
2021/12/03 06:53:57;;;;;;;8.18;4.10;;;;;9.20;100697.00;;;;5102942;28;20233;-80
2021/12/03 06:56:33;;;;;;;11.23;4.25;;;;;9.20;100689.00;;;;5110796;28;20288;-80
2021/12/03 06:59:01;;;;;;;9.38;4.15;;;;;9.30;100688.00;;;;5093824;28;20190;-78
2021/12/03 07:01:28;;;;;;;10.48;3.92;;;;;9.30;100684.00;;;;5095893;28;20216;-80
2021/12/03 07:03:55;;;;;;;12.25;4.55;;;;;9.30;100682.00;;;;5110726;28;20209;-80
2021/12/03 07:06:22;;;;;;;9.00;4.65;;;;;9.30;100674.00;;;;5095830;28;20656;-80
2021/12/03 07:08:50;;;;;;;12.38;3.97;;;;;9.30;100660.00;;;;5100151;28;20190;-81
2021/12/03 07:11:18;;;;;;;8.68;4.25;;;;;9.30;100661.00;;;;5104268;28;20556;-81
2021/12/03 07:13:48;;;;;;;11.45;4.20;;;;;9.30;100663.00;;;;5099796;28;20206;-81
2021/12/03 07:16:15;;;;;;;8.90;3.65;;;;;9.30;100663.00;;;;5089832;28;20206;-81
2021/12/03 07:18:43;;;;;;;9.50;4.00;;;;;9.30;100666.00;;;;5090392;28;20210;-81
2021/12/03 07:21:10;;;;;;;7.88;4.00;;;;;9.40;100673.00;;;;5099685;28;20221;-81
2021/12/03 07:23:37;;;;;;;9.70;3.78;;;;;9.40;100674.00;;;;5110454;28;20205;-81
2021/12/03 07:26:05;;;;;;;9.73;4.25;;;;;9.40;100674.00;;;;5109486;28;20205;-81
2021/12/03 07:28:33;;;;;;;8.98;4.18;;;;;9.40;100683.00;;;;5098322;28;20217;-81
2021/12/03 07:31:01;;;;;;;11.13;3.85;;;;;9.40;100679.00;;;;5088904;28;20201;-81
2021/12/03 07:33:31;;;;;;;10.52;3.92;;;;;9.50;100680.00;;;;5092332;28;20526;-81
2021/12/03 07:35:58;;;;;;;7.45;3.38;;;;;9.50;100680.00;;;;5103412;28;20218;-80
2021/12/03 07:38:25;;;;;;;8.32;3.55;;;;;9.50;100675.00;;;;5108980;28;20201;-80
2021/12/03 07:40:53;;;;;;;6.85;3.50;;;;;9.50;100673.00;;;;5089215;28;20252;-80
2021/12/03 07:43:20;;;;;;;6.00;3.38;;;;;9.50;100669.00;;;;5091702;28;20201;-80
2021/12/03 07:45:48;;;;;;;7.35;3.67;;;;;9.50;100670.00;;;;5091023;28;20272;-80
2021/12/03 07:48:21;;;;;;;9.00;3.70;;;;;9.50;100666.00;;;;5088275;28;20652;-80
2021/12/03 07:50:49;;;;;;;7.07;2.85;;;;;9.50;100667.00;;;;5106229;28;20675;-80
2021/12/03 07:53:18;;;;;;;5.68;3.08;;;;;9.60;100665.00;;;;5092555;28;20818;-79
2021/12/03 07:55:46;;;;;;;9.57;3.75;;;;;9.60;100670.00;;;;5090753;28;20195;-79
2021/12/03 07:58:14;;;;;;;6.80;3.15;;;;;9.60;100674.00;;;;5103818;28;20190;-78
2021/12/03 08:00:41;;;;;;;6.72;3.05;;;;;9.60;100659.00;;;;5097904;28;20221;-80
2021/12/03 08:03:09;;;;;;;8.02;2.97;;;;;9.60;100667.00;;;;5090213;28;20202;-80
2021/12/03 08:05:37;;;;;;;6.47;2.97;;;;;9.60;100659.00;;;;5087931;28;20335;-80
2021/12/03 08:08:06;;;;;;;7.20;3.40;;;;;9.60;100653.00;;;;5088201;28;20198;-80
2021/12/03 08:10:35;;;;;;;4.82;2.83;;;;;9.70;100655.00;;;;5100575;28;20312;-79
2021/12/03 08:13:03;;;;;;;7.80;3.08;;;;;9.70;100648.00;;;;5092580;28;20205;-79
2021/12/03 08:15:36;;;;;;;9.00;2.83;;;;;9.70;100646.00;;;;5091904;28;20197;-79
2021/12/03 08:18:04;;;;;;;6.38;2.97;;;;;9.70;100641.00;;;;5094263;28;20202;-78
2021/12/03 08:20:32;;;;;;;5.80;3.25;;;;;9.70;100645.00;;;;5090996;28;20221;-78
2021/12/03 08:23:01;;;;;;;8.38;2.75;;;;;9.70;100637.00;;;;5098052;28;20209;-78
2021/12/03 08:25:29;;;;;;;7.70;3.45;;;;;9.70;100642.00;;;;5094193;28;20204;-78
2021/12/03 08:27:59;;;;;;;6.95;3.13;;;;;9.70;100641.00;;;;5102437;28;20655;-77
2021/12/03 08:30:28;;;;;;;8.65;3.65;;;;;9.70;100638.00;;;;5102368;28;20283;-78
2021/12/03 08:32:56;;;;;;;8.02;3.05;;;;;9.70;100637.00;;;;5106584;28;20273;-79
2021/12/03 08:35:23;;;;;;;10.32;3.83;;;;;9.70;100640.00;;;;5097392;28;20198;-78
2021/12/03 08:37:51;;;;;;;11.00;3.63;;;;;9.70;100639.00;;;;5088041;28;20222;-78
2021/12/03 08:40:21;;;;;;;12.32;4.63;;;;;9.70;100638.00;;;;5088495;28;20201;-79
2021/12/03 08:42:49;;;;;;;10.00;3.05;;;;;9.70;100633.00;;;;5097000;28;20222;-79
2021/12/03 08:45:18;;;;;;;12.50;3.85;;;;;9.70;100639.00;;;;5088844;28;20202;-78
2021/12/03 08:47:49;;;;;;;9.15;4.28;;;;;9.80;100620.00;;;;5089535;28;20229;-79
2021/12/03 08:50:26;;;;;;;11.80;3.75;;;;;9.80;100616.00;;;;5107596;28;20221;-77
2021/12/03 08:55:40;;;;;;;10.60;4.18;;;;;9.80;100611.00;;;;5088169;28;20816;-76
2021/12/03 08:58:09;;;;;;;11.60;4.50;;;;;9.80;100607.00;;;;5087952;28;20198;-80
2021/12/03 09:00:38;;;;;;;10.65;3.83;;;;;9.80;100611.00;;;;5088020;28;20277;-80
2021/12/03 09:03:06;;;;;;;7.70;3.33;;;;;9.80;100607.00;;;;5087907;28;20224;-79
2021/12/03 09:05:34;;;;;;;9.95;2.97;;;;;9.80;100600.00;;;;5096198;28;20193;-79
2021/12/03 09:08:02;;;;;;;8.20;3.30;;;;;9.80;100604.00;;;;5105599;28;20209;-78
2021/12/03 09:10:29;;;;;;;8.20;3.13;;;;;9.80;100602.00;;;;5101004;28;20205;-79
2021/12/03 09:12:58;;;;;;;8.23;3.20;;;;;9.90;100610.00;;;;5104889;28;20613;-79
2021/12/03 09:15:30;;;;;;;8.50;2.95;;;;;9.90;100606.00;;;;5092068;28;20194;-77
2021/12/03 09:20:56;;;;;;;4.32;2.00;;;;;9.90;100599.00;;;;5083912;28;20225;-78
2021/12/03 09:23:31;;;;;;;5.95;2.38;;;;;9.90;100602.00;;;;5098214;28;20667;-78
2021/12/03 09:26:06;;;;;;;8.35;2.47;;;;;9.90;100598.00;;;;5097052;28;20636;-77
2021/12/03 09:28:36;;;;;;;7.45;2.10;;;;;9.90;100603.00;;;;5111573;28;20265;-80
2021/12/03 09:31:05;;;;;;;5.72;2.03;;;;;9.90;100606.00;;;;5107874;28;20189;-78
2021/12/03 09:33:34;;;;;;;4.65;2.35;;;;;10.00;100606.00;;;;5111088;28;20250;-78
2021/12/03 09:36:03;;;;;;;5.55;2.15;;;;;10.00;100604.00;;;;5105176;28;20210;-77
2021/12/03 09:38:33;;;;;;;5.57;1.77;;;;;10.10;100605.00;;;;5103106;28;20193;-78
2021/12/03 09:41:08;;;;;;;5.15;1.83;;;;;10.10;100597.00;;;;5091121;28;20692;-77
2021/12/03 09:43:41;;;;;;;3.22;1.88;;;;;10.10;100593.00;;;;5095567;28;20579;-77
2021/12/03 09:46:15;;;;;;;4.32;1.98;;;;;10.10;100594.00;;;;5098774;28;20193;-77
2021/12/03 09:48:58;;;;;;;9.13;1.95;;;;;10.20;100588.00;;;;5101878;28;20190;-77
2021/12/03 09:51:30;;;;;;;4.30;1.77;;;;;10.20;100579.00;;;;5096268;28;20194;-78
2021/12/03 09:54:18;;;;;;;2.70;1.33;;;;;10.20;100569.00;;;;5098404;28;20230;-77
2021/12/03 09:56:46;;;;;;;3.55;1.23;;;;;10.30;100557.00;;;;5091940;28;20205;-78
2021/12/03 10:02:08;;;;;;;7.38;1.98;;;;;10.30;100562.00;;;;5106716;28;20539;-79
2021/12/03 10:04:47;;;;;;;3.88;1.58;;;;;10.30;100565.00;;;;5102668;28;20715;-78
2021/12/03 10:12:46;;;;;;;3.83;1.58;;;;;10.30;100552.00;;;;5087284;28;20213;-78
2021/12/03 10:15:18;;;;;;;7.93;2.45;;;;;10.30;100554.00;;;;5090945;28;20194;-79
2021/12/03 10:17:58;;;;;;;4.60;1.30;;;;;10.30;100549.00;;;;5091623;28;20768;-79
2021/12/03 10:20:32;;;;;;;4.95;1.55;;;;;10.30;100548.00;;;;5092788;28;20277;-79
2021/12/03 10:23:44;;;;;;;7.45;1.95;;;;;10.20;100535.00;;;;5108196;28;20231;-78
2021/12/03 10:26:50;;;;;;;5.40;1.90;;;;;10.30;100524.00;;;;5091225;28;20210;-78
2021/12/03 10:29:35;;;;;;;3.63;1.45;;;;;10.20;100538.00;;;;5100963;28;20212;-79
2021/12/03 10:37:58;;;;;;;5.22;1.55;;;;;10.20;100523.00;;;;5096615;28;20266;-77
2021/12/03 10:40:49;;;;;;;4.63;1.70;;;;;10.20;100520.00;;;;5090568;28;20217;-77
2021/12/03 10:43:35;;;;;;;5.70;1.75;;;;;10.20;100517.00;;;;5091270;28;20814;-81
2021/12/03 10:48:56;;;;;;;4.60;2.00;;;;;10.10;100482.00;;;;5106063;28;20205;-78
2021/12/03 10:51:39;;;;;;;4.93;1.83;;;;;10.20;100486.00;;;;5095228;28;20202;-78
2021/12/03 10:54:12;;;;;;;7.07;1.85;;;;;10.20;100490.00;;;;5106663;28;20313;-77
2021/12/03 10:56:52;;;;;;;5.05;1.70;;;;;10.20;100478.00;;;;5111462;28;20290;-78
2021/12/03 11:02:53;;;;;;;4.40;2.13;;;;;10.20;100470.00;;;;5095469;28;20610;-78
2021/12/03 11:06:16;;;;;;;6.38;2.03;;;;;10.20;100458.00;;;;5098154;28;20870;-78
2021/12/03 11:29:05;;;;;;;3.95;1.30;;;;;10.50;100433.00;;;;5090606;28;20270;-77
2021/12/03 11:40:32;;;;;;;4.43;2.15;;;;;10.60;100425.00;;;;5098613;28;20681;-77
2021/12/03 11:58:33;;;;;;;6.07;1.77;;;;;10.80;100379.00;;;;5089169;28;20575;-77
2021/12/03 12:19:09;;;;;;;3.45;2.08;;;;;11.00;100335.00;;;;5067867;28;20244;-78
2021/12/03 13:22:20;;;;;;;3.25;1.60;;;;;11.10;100261.00;;;;5095409;28;20282;-78
2021/12/03 14:38:30;;;;;;;1.95;1.58;;;;;10.70;100241.00;;;;5034790;28;20230;-77
2021/12/03 14:41:11;;;;;;;4.68;1.90;;;;;10.70;100234.00;;;;5056982;28;20223;-77
2021/12/03 14:43:51;;;;;;;3.22;1.90;;;;;10.70;100242.00;;;;5064765;28;20195;-78
2021/12/03 14:49:13;;;;;;;3.05;1.83;;;;;10.70;100237.00;;;;5055502;28;20256;-78
2021/12/03 14:51:54;;;;;;;4.32;2.30;;;;;10.80;100226.00;;;;5045317;28;20211;-78
2021/12/03 14:54:35;;;;;;;2.25;1.75;;;;;10.80;100224.00;;;;5045172;28;20206;-78
2021/12/03 14:57:19;;;;;;;3.60;1.98;;;;;10.70;100226.00;;;;5045649;28;20217;-78
2021/12/03 15:00:08;;;;;;;2.08;1.60;;;;;10.70;100219.00;;;;5054706;28;20257;-78
2021/12/03 15:02:53;;;;;;;4.00;1.77;;;;;10.80;100211.00;;;;5065227;28;20260;-78
2021/12/03 15:05:40;;;;;;;2.53;1.90;;;;;10.70;100206.00;;;;5063132;28;20300;-77
2021/12/03 15:08:10;;;;;;;1.70;1.42;;;;;10.80;100209.00;;;;5064318;28;20264;-78
2021/12/03 15:10:51;;;;;;;2.42;2.22;;;;;10.80;100213.00;;;;5063969;28;20609;-78
2021/12/03 15:13:33;;;;;;;4.15;2.17;;;;;10.80;100208.00;;;;5064074;28;20226;-77
2021/12/03 15:32:47;;;;;;;4.50;2.53;;;;;10.70;100187.00;;;;5047084;28;20249;-77
2021/12/03 15:35:16;;;;;;;3.22;2.25;;;;;10.70;100192.00;;;;5047939;28;20261;-78
2021/12/03 15:38:04;;;;;;;3.15;2.08;;;;;10.70;100187.00;;;;5042188;28;20725;-78
2021/12/03 15:41:11;;;;;;;2.38;1.92;;;;;10.70;100191.00;;;;5034404;28;20264;-78
2021/12/03 15:52:29;;;;;;;6.00;4.80;;;;;10.70;100175.00;;;;5048263;28;20880;-79
2021/12/03 15:55:14;;;;;;;2.33;2.13;;;;;10.90;100163.00;;;;5050028;28;20662;-78
2021/12/03 16:03:38;;;;;;;2.63;2.15;;;;;10.90;100147.00;;;;5039626;28;20688;-80
2021/12/03 16:08:54;;;;;;;2.30;1.98;;;;;10.80;100147.00;;;;5049980;28;20202;-79
2021/12/03 16:11:27;;;;;;;2.67;2.42;;;;;10.90;100151.00;;;;5049757;28;20807;-79
2021/12/03 16:14:07;;;;;;;3.58;2.47;;;;;10.90;100145.00;;;;5050385;28;20244;-79
2021/12/03 16:19:45;;;;;;;3.03;2.50;;;;;10.80;100130.00;;;;4992764;28;20284;-79
2021/12/03 16:47:11;;;;;;;2.83;2.60;;;;;10.90;100120.00;;;;5048940;28;20298;-78
2021/12/03 16:50:11;;;;;;;3.08;2.47;;;;;10.90;100125.00;;;;5049158;28;20672;-78
2021/12/03 16:52:42;;;;;;;2.30;2.10;;;;;10.90;100124.00;;;;5048836;28;20204;-78
2021/12/03 16:55:10;;;;;;;2.92;2.58;;;;;10.90;100121.00;;;;5049126;28;20283;-79
2021/12/03 16:57:38;;;;;;;2.80;2.60;;;;;10.90;100115.00;;;;5047187;28;20268;-79
2021/12/03 17:00:18;;;;;;;2.50;2.30;;;;;10.90;100112.00;;;;5049144;28;20199;-78
2021/12/03 17:02:50;;;;;;;2.67;2.47;;;;;10.90;100108.00;;;;5048064;28;20219;-78
2021/12/03 17:05:34;;;;;;;2.63;2.42;;;;;10.90;100114.00;;;;5045695;28;20888;-78
2021/12/03 17:11:15;;;;;;;3.03;2.72;;;;;11.00;100123.00;;;;5047320;28;20210;-79
2021/12/03 17:44:42;;;;;;;4.03;3.63;;;;;11.00;100056.00;;;;5085285;28;20577;-78
2021/12/03 17:47:29;;;;;;;3.55;3.25;;;;;11.00;100064.00;;;;5084469;28;20212;-78
2021/12/03 17:50:07;;;;;;;2.25;2.05;;;;;11.10;100049.00;;;;5084227;28;20221;-77
2021/12/03 17:55:29;;;;;;;2.95;2.65;;;;;11.10;100045.00;;;;5088372;28;20591;-78
2021/12/03 17:57:59;;;;;;;2.65;2.45;;;;;11.10;100041.00;;;;5085600;28;20285;-77